sensor_id;sensor_type;location;lat;lon;timestamp;P1;durP1;ratioP1;P2;durP2;ratioP2
70122;SDS011;57489;37.404;24.920;2023-11-21T00:01:15;6.40;;;2.20;;
70122;SDS011;57489;37.404;24.920;2023-11-21T00:06:17;5.70;;;1.98;;
70122;SDS011;57489;37.404;24.920;2023-11-21T00:11:20;6.55;;;2.15;;
70122;SDS011;57489;37.404;24.920;2023-11-21T00:16:25;5.60;;;1.70;;
70122;SDS011;57489;37.404;24.920;2023-11-21T00:21:27;8.60;;;2.30;;
70122;SDS011;57489;37.404;24.920;2023-11-21T00:26:29;6.13;;;1.73;;
70122;SDS011;57489;37.404;24.920;2023-11-21T00:31:38;8.47;;;2.10;;
70122;SDS011;57489;37.404;24.920;2023-11-21T00:36:40;7.85;;;1.70;;
70122;SDS011;57489;37.404;24.920;2023-11-21T00:41:43;5.97;;;2.28;;
70122;SDS011;57489;37.404;24.920;2023-11-21T00:46:47;4.83;;;2.03;;
70122;SDS011;57489;37.404;24.920;2023-11-21T00:51:49;6.30;;;2.17;;
70122;SDS011;57489;37.404;24.920;2023-11-21T00:56:51;6.70;;;1.92;;
70122;SDS011;57489;37.404;24.920;2023-11-21T01:01:55;9.13;;;2.33;;
70122;SDS011;57489;37.404;24.920;2023-11-21T01:07:00;6.63;;;2.05;;
70122;SDS011;57489;37.404;24.920;2023-11-21T01:12:03;7.17;;;1.90;;
70122;SDS011;57489;37.404;24.920;2023-11-21T01:17:07;4.43;;;1.70;;
70122;SDS011;57489;37.404;24.920;2023-11-21T01:22:09;6.10;;;1.90;;
70122;SDS011;57489;37.404;24.920;2023-11-21T01:27:12;3.37;;;1.40;;
70122;SDS011;57489;37.404;24.920;2023-11-21T01:32:16;5.20;;;2.30;;
70122;SDS011;57489;37.404;24.920;2023-11-21T01:37:18;3.47;;;1.60;;
70122;SDS011;57489;37.404;24.920;2023-11-21T01:42:21;5.70;;;1.90;;
70122;SDS011;57489;37.404;24.920;2023-11-21T01:47:25;4.80;;;1.57;;
70122;SDS011;57489;37.404;24.920;2023-11-21T01:52:27;5.15;;;1.92;;
70122;SDS011;57489;37.404;24.920;2023-11-21T01:57:30;4.85;;;1.90;;
70122;SDS011;57489;37.404;24.920;2023-11-21T02:02:34;4.77;;;1.63;;
70122;SDS011;57489;37.404;24.920;2023-11-21T02:07:36;2.63;;;1.40;;
70122;SDS011;57489;37.404;24.920;2023-11-21T02:12:38;3.87;;;1.57;;
70122;SDS011;57489;37.404;24.920;2023-11-21T02:17:44;3.07;;;1.27;;
70122;SDS011;57489;37.404;24.920;2023-11-21T02:22:50;5.28;;;1.48;;
70122;SDS011;57489;37.404;24.920;2023-11-21T02:27:58;3.20;;;1.37;;
70122;SDS011;57489;37.404;24.920;2023-11-21T02:33:01;5.20;;;2.20;;
70122;SDS011;57489;37.404;24.920;2023-11-21T02:38:05;4.55;;;1.60;;
70122;SDS011;57489;37.404;24.920;2023-11-21T02:43:07;3.97;;;1.37;;
70122;SDS011;57489;37.404;24.920;2023-11-21T02:48:10;4.33;;;1.53;;
70122;SDS011;57489;37.404;24.920;2023-11-21T02:53:14;4.38;;;1.83;;
70122;SDS011;57489;37.404;24.920;2023-11-21T02:58:16;4.37;;;1.77;;
70122;SDS011;57489;37.404;24.920;2023-11-21T03:03:18;6.30;;;1.67;;
70122;SDS011;57489;37.404;24.920;2023-11-21T03:08:22;4.72;;;1.65;;
70122;SDS011;57489;37.404;24.920;2023-11-21T03:13:24;4.00;;;1.80;;
70122;SDS011;57489;37.404;24.920;2023-11-21T03:18:26;3.97;;;1.77;;
70122;SDS011;57489;37.404;24.920;2023-11-21T03:23:31;4.63;;;2.05;;
70122;SDS011;57489;37.404;24.920;2023-11-21T03:28:33;4.03;;;2.00;;
70122;SDS011;57489;37.404;24.920;2023-11-21T03:33:35;4.17;;;1.57;;
70122;SDS011;57489;37.404;24.920;2023-11-21T03:38:39;5.03;;;1.80;;
70122;SDS011;57489;37.404;24.920;2023-11-21T03:43:41;3.60;;;1.50;;
70122;SDS011;57489;37.404;24.920;2023-11-21T03:48:44;3.87;;;1.70;;
70122;SDS011;57489;37.404;24.920;2023-11-21T03:53:47;6.45;;;1.85;;
70122;SDS011;57489;37.404;24.920;2023-11-21T03:58:50;3.73;;;1.80;;
70122;SDS011;57489;37.404;24.920;2023-11-21T04:03:52;4.37;;;1.67;;
70122;SDS011;57489;37.404;24.920;2023-11-21T04:08:56;2.67;;;1.50;;
70122;SDS011;57489;37.404;24.920;2023-11-21T04:13:58;5.30;;;1.70;;
70122;SDS011;57489;37.404;24.920;2023-11-21T04:19:01;3.63;;;1.50;;
70122;SDS011;57489;37.404;24.920;2023-11-21T04:24:05;3.72;;;1.70;;
70122;SDS011;57489;37.404;24.920;2023-11-21T04:29:09;3.93;;;1.70;;
70122;SDS011;57489;37.404;24.920;2023-11-21T04:34:11;3.37;;;1.43;;
70122;SDS011;57489;37.404;24.920;2023-11-21T04:39:15;2.10;;;1.23;;
70122;SDS011;57489;37.404;24.920;2023-11-21T04:44:17;4.23;;;1.90;;
70122;SDS011;57489;37.404;24.920;2023-11-21T04:49:20;2.40;;;1.30;;
70122;SDS011;57489;37.404;24.920;2023-11-21T04:54:23;3.97;;;1.90;;
70122;SDS011;57489;37.404;24.920;2023-11-21T04:59:26;6.57;;;1.47;;
70122;SDS011;57489;37.404;24.920;2023-11-21T05:04:28;3.13;;;1.90;;
70122;SDS011;57489;37.404;24.920;2023-11-21T05:09:32;3.42;;;1.77;;
70122;SDS011;57489;37.404;24.920;2023-11-21T05:14:35;3.87;;;1.50;;
70122;SDS011;57489;37.404;24.920;2023-11-21T05:19:37;3.13;;;1.50;;
70122;SDS011;57489;37.404;24.920;2023-11-21T05:24:42;4.25;;;2.20;;
70122;SDS011;57489;37.404;24.920;2023-11-21T05:29:44;5.73;;;2.20;;
70122;SDS011;57489;37.404;24.920;2023-11-21T05:34:46;8.60;;;2.10;;
70122;SDS011;57489;37.404;24.920;2023-11-21T05:39:50;7.53;;;2.53;;
70122;SDS011;57489;37.404;24.920;2023-11-21T05:44:53;6.97;;;2.53;;
70122;SDS011;57489;37.404;24.920;2023-11-21T05:49:55;8.03;;;2.33;;
70122;SDS011;57489;37.404;24.920;2023-11-21T05:54:59;9.20;;;1.98;;
70122;SDS011;57489;37.404;24.920;2023-11-21T06:00:01;14.83;;;2.63;;
70122;SDS011;57489;37.404;24.920;2023-11-21T06:05:11;9.87;;;1.83;;
70122;SDS011;57489;37.404;24.920;2023-11-21T06:10:15;4.88;;;1.70;;
70122;SDS011;57489;37.404;24.920;2023-11-21T06:15:19;6.13;;;1.97;;
70122;SDS011;57489;37.404;24.920;2023-11-21T06:20:23;9.90;;;1.90;;
70122;SDS011;57489;37.404;24.920;2023-11-21T06:25:27;6.50;;;2.38;;
70122;SDS011;57489;37.404;24.920;2023-11-21T06:30:29;5.60;;;1.73;;
70122;SDS011;57489;37.404;24.920;2023-11-21T06:35:32;9.97;;;2.10;;
70122;SDS011;57489;37.404;24.920;2023-11-21T06:40:36;6.20;;;2.20;;
70122;SDS011;57489;37.404;24.920;2023-11-21T06:45:39;7.13;;;2.07;;
70122;SDS011;57489;37.404;24.920;2023-11-21T06:50:41;4.57;;;1.73;;
70122;SDS011;57489;37.404;24.920;2023-11-21T06:55:45;8.52;;;2.45;;
70122;SDS011;57489;37.404;24.920;2023-11-21T07:00:47;6.95;;;1.98;;
70122;SDS011;57489;37.404;24.920;2023-11-21T07:05:50;6.87;;;2.00;;
70122;SDS011;57489;37.404;24.920;2023-11-21T07:10:54;7.03;;;2.13;;
70122;SDS011;57489;37.404;24.920;2023-11-21T07:15:57;4.00;;;1.65;;
70122;SDS011;57489;37.404;24.920;2023-11-21T07:21:00;4.93;;;1.47;;
70122;SDS011;57489;37.404;24.920;2023-11-21T07:26:04;4.03;;;1.63;;
70122;SDS011;57489;37.404;24.920;2023-11-21T07:31:09;5.27;;;2.17;;
70122;SDS011;57489;37.404;24.920;2023-11-21T07:36:13;5.00;;;1.50;;
70122;SDS011;57489;37.404;24.920;2023-11-21T07:41:17;6.13;;;2.05;;
70122;SDS011;57489;37.404;24.920;2023-11-21T07:46:19;6.70;;;1.88;;
70122;SDS011;57489;37.404;24.920;2023-11-21T07:51:22;6.37;;;1.90;;
70122;SDS011;57489;37.404;24.920;2023-11-21T07:56:26;3.33;;;1.40;;
70122;SDS011;57489;37.404;24.920;2023-11-21T08:01:28;5.50;;;1.90;;
70122;SDS011;57489;37.404;24.920;2023-11-21T08:06:32;5.87;;;1.67;;
70122;SDS011;57489;37.404;24.920;2023-11-21T08:11:36;5.07;;;1.42;;
70122;SDS011;57489;37.404;24.920;2023-11-21T08:16:39;5.18;;;1.23;;
70122;SDS011;57489;37.404;24.920;2023-11-21T08:21:41;4.20;;;1.40;;
70122;SDS011;57489;37.404;24.920;2023-11-21T08:26:46;4.10;;;1.35;;
70122;SDS011;57489;37.404;24.920;2023-11-21T08:31:48;5.10;;;1.88;;
70122;SDS011;57489;37.404;24.920;2023-11-21T08:36:50;4.57;;;1.60;;
70122;SDS011;57489;37.404;24.920;2023-11-21T08:41:54;4.70;;;1.58;;
70122;SDS011;57489;37.404;24.920;2023-11-21T08:46:57;5.40;;;2.20;;
70122;SDS011;57489;37.404;24.920;2023-11-21T08:51:59;3.33;;;1.77;;
70122;SDS011;57489;37.404;24.920;2023-11-21T08:57:03;4.40;;;1.73;;
70122;SDS011;57489;37.404;24.920;2023-11-21T09:02:06;3.60;;;1.60;;
70122;SDS011;57489;37.404;24.920;2023-11-21T09:07:08;3.37;;;1.63;;
70122;SDS011;57489;37.404;24.920;2023-11-21T09:12:12;3.73;;;1.50;;
70122;SDS011;57489;37.404;24.920;2023-11-21T09:17:14;5.15;;;1.73;;
70122;SDS011;57489;37.404;24.920;2023-11-21T09:22:16;3.60;;;1.70;;
70122;SDS011;57489;37.404;24.920;2023-11-21T09:27:20;4.13;;;1.60;;
70122;SDS011;57489;37.404;24.920;2023-11-21T09:32:22;4.95;;;1.98;;
70122;SDS011;57489;37.404;24.920;2023-11-21T09:37:25;5.10;;;1.92;;
70122;SDS011;57489;37.404;24.920;2023-11-21T09:42:30;7.90;;;2.07;;
70122;SDS011;57489;37.404;24.920;2023-11-21T09:47:38;4.95;;;1.75;;
70122;SDS011;57489;37.404;24.920;2023-11-21T09:52:41;5.15;;;2.03;;
70122;SDS011;57489;37.404;24.920;2023-11-21T09:57:52;3.77;;;1.80;;
70122;SDS011;57489;37.404;24.920;2023-11-21T10:02:55;3.88;;;1.75;;
70122;SDS011;57489;37.404;24.920;2023-11-21T10:08:00;5.32;;;2.28;;
70122;SDS011;57489;37.404;24.920;2023-11-21T10:13:06;5.27;;;2.20;;
70122;SDS011;57489;37.404;24.920;2023-11-21T10:18:10;5.70;;;2.20;;
70122;SDS011;57489;37.404;24.920;2023-11-21T10:23:15;5.05;;;2.13;;
70122;SDS011;57489;37.404;24.920;2023-11-21T10:28:19;4.77;;;1.77;;
70122;SDS011;57489;37.404;24.920;2023-11-21T10:33:26;7.73;;;1.90;;
70122;SDS011;57489;37.404;24.920;2023-11-21T10:38:32;5.80;;;2.00;;
70122;SDS011;57489;37.404;24.920;2023-11-21T10:43:39;4.05;;;1.95;;
70122;SDS011;57489;37.404;24.920;2023-11-21T10:48:42;4.83;;;2.23;;
70122;SDS011;57489;37.404;24.920;2023-11-21T10:53:44;5.15;;;1.88;;
70122;SDS011;57489;37.404;24.920;2023-11-21T10:58:48;6.00;;;1.83;;
70122;SDS011;57489;37.404;24.920;2023-11-21T11:03:51;4.83;;;1.80;;
70122;SDS011;57489;37.404;24.920;2023-11-21T11:08:55;4.97;;;1.92;;
70122;SDS011;57489;37.404;24.920;2023-11-21T11:14:00;5.25;;;2.00;;
70122;SDS011;57489;37.404;24.920;2023-11-21T11:19:03;6.17;;;2.27;;
70122;SDS011;57489;37.404;24.920;2023-11-21T11:24:11;4.90;;;2.00;;
70122;SDS011;57489;37.404;24.920;2023-11-21T11:29:26;5.28;;;1.98;;
70122;SDS011;57489;37.404;24.920;2023-11-21T11:34:37;5.90;;;1.58;;
70122;SDS011;57489;37.404;24.920;2023-11-21T11:39:45;5.33;;;1.70;;
70122;SDS011;57489;37.404;24.920;2023-11-21T11:44:51;7.55;;;2.35;;
70122;SDS011;57489;37.404;24.920;2023-11-21T11:50:03;6.07;;;2.15;;
70122;SDS011;57489;37.404;24.920;2023-11-21T11:55:11;4.37;;;1.67;;
70122;SDS011;57489;37.404;24.920;2023-11-21T12:00:17;4.93;;;1.70;;
70122;SDS011;57489;37.404;24.920;2023-11-21T12:05:21;4.55;;;1.77;;
70122;SDS011;57489;37.404;24.920;2023-11-21T12:10:24;4.83;;;1.80;;
70122;SDS011;57489;37.404;24.920;2023-11-21T12:15:29;3.53;;;1.47;;
70122;SDS011;57489;37.404;24.920;2023-11-21T12:20:31;14.93;;;10.30;;
70122;SDS011;57489;37.404;24.920;2023-11-21T12:25:38;13.77;;;8.15;;
70122;SDS011;57489;37.404;24.920;2023-11-21T12:30:43;8.57;;;5.57;;
70122;SDS011;57489;37.404;24.920;2023-11-21T12:35:45;9.43;;;5.32;;
70122;SDS011;57489;37.404;24.920;2023-11-21T12:40:47;7.93;;;3.53;;
70122;SDS011;57489;37.404;24.920;2023-11-21T12:45:51;5.40;;;3.30;;
70122;SDS011;57489;37.404;24.920;2023-11-21T12:51:06;5.93;;;3.00;;
70122;SDS011;57489;37.404;24.920;2023-11-21T12:56:10;5.97;;;3.13;;
70122;SDS011;57489;37.404;24.920;2023-11-21T13:01:14;8.27;;;2.83;;
70122;SDS011;57489;37.404;24.920;2023-11-21T13:06:19;6.82;;;2.47;;
70122;SDS011;57489;37.404;24.920;2023-11-21T13:11:25;5.43;;;2.28;;
70122;SDS011;57489;37.404;24.920;2023-11-21T13:16:29;9.17;;;2.07;;
70122;SDS011;57489;37.404;24.920;2023-11-21T13:21:32;7.15;;;2.63;;
70122;SDS011;57489;37.404;24.920;2023-11-21T13:26:35;5.95;;;2.90;;
70122;SDS011;57489;37.404;24.920;2023-11-21T13:31:39;6.03;;;2.37;;
70122;SDS011;57489;37.404;24.920;2023-11-21T13:36:42;5.18;;;2.55;;
70122;SDS011;57489;37.404;24.920;2023-11-21T13:41:45;6.75;;;2.20;;
70122;SDS011;57489;37.404;24.920;2023-11-21T13:46:56;5.67;;;2.07;;
70122;SDS011;57489;37.404;24.920;2023-11-21T13:51:59;5.93;;;2.00;;
70122;SDS011;57489;37.404;24.920;2023-11-21T13:57:02;6.00;;;2.00;;
70122;SDS011;57489;37.404;24.920;2023-11-21T14:02:07;5.77;;;2.07;;
70122;SDS011;57489;37.404;24.920;2023-11-21T14:07:18;6.57;;;2.20;;
70122;SDS011;57489;37.404;24.920;2023-11-21T14:12:30;5.18;;;1.90;;
70122;SDS011;57489;37.404;24.920;2023-11-21T14:17:37;4.25;;;2.22;;
70122;SDS011;57489;37.404;24.920;2023-11-21T14:22:42;3.33;;;1.80;;
70122;SDS011;57489;37.404;24.920;2023-11-21T14:27:44;6.28;;;2.50;;
70122;SDS011;57489;37.404;24.920;2023-11-21T14:32:48;3.78;;;1.80;;
70122;SDS011;57489;37.404;24.920;2023-11-21T14:37:51;5.90;;;2.20;;
70122;SDS011;57489;37.404;24.920;2023-11-21T14:42:53;4.07;;;1.90;;
70122;SDS011;57489;37.404;24.920;2023-11-21T14:47:58;6.32;;;2.45;;
70122;SDS011;57489;37.404;24.920;2023-11-21T14:53:08;5.77;;;2.67;;
70122;SDS011;57489;37.404;24.920;2023-11-21T14:58:12;8.13;;;2.72;;
70122;SDS011;57489;37.404;24.920;2023-11-21T15:03:21;5.13;;;2.00;;
70122;SDS011;57489;37.404;24.920;2023-11-21T15:08:43;5.17;;;2.20;;
70122;SDS011;57489;37.404;24.920;2023-11-21T15:13:45;6.00;;;1.77;;
70122;SDS011;57489;37.404;24.920;2023-11-21T15:18:50;8.55;;;2.10;;
70122;SDS011;57489;37.404;24.920;2023-11-21T15:23:53;6.17;;;2.03;;
70122;SDS011;57489;37.404;24.920;2023-11-21T15:28:55;4.93;;;1.83;;
70122;SDS011;57489;37.404;24.920;2023-11-21T15:33:59;5.72;;;1.83;;
70122;SDS011;57489;37.404;24.920;2023-11-21T15:39:01;5.53;;;1.90;;
70122;SDS011;57489;37.404;24.920;2023-11-21T15:44:04;4.45;;;2.08;;
70122;SDS011;57489;37.404;24.920;2023-11-21T15:49:11;5.30;;;2.17;;
70122;SDS011;57489;37.404;24.920;2023-11-21T15:54:14;5.00;;;1.90;;
70122;SDS011;57489;37.404;24.920;2023-11-21T15:59:16;5.85;;;2.15;;
70122;SDS011;57489;37.404;24.920;2023-11-21T16:04:20;3.97;;;2.30;;
70122;SDS011;57489;37.404;24.920;2023-11-21T16:09:23;6.90;;;1.50;;
70122;SDS011;57489;37.404;24.920;2023-11-21T16:14:31;6.10;;;2.53;;
70122;SDS011;57489;37.404;24.920;2023-11-21T16:19:38;5.20;;;1.70;;
70122;SDS011;57489;37.404;24.920;2023-11-21T16:24:40;4.23;;;2.03;;
70122;SDS011;57489;37.404;24.920;2023-11-21T16:29:43;5.45;;;1.92;;
70122;SDS011;57489;37.404;24.920;2023-11-21T16:34:47;5.70;;;2.17;;
70122;SDS011;57489;37.404;24.920;2023-11-21T16:39:50;6.30;;;2.57;;
70122;SDS011;57489;37.404;24.920;2023-11-21T16:44:52;7.78;;;2.33;;
70122;SDS011;57489;37.404;24.920;2023-11-21T16:49:56;6.50;;;2.00;;
70122;SDS011;57489;37.404;24.920;2023-11-21T16:54:58;4.13;;;1.77;;
70122;SDS011;57489;37.404;24.920;2023-11-21T17:00:00;5.85;;;1.98;;
70122;SDS011;57489;37.404;24.920;2023-11-21T17:05:08;6.40;;;1.90;;
70122;SDS011;57489;37.404;24.920;2023-11-21T17:10:12;4.47;;;2.00;;
70122;SDS011;57489;37.404;24.920;2023-11-21T17:15:14;6.18;;;1.98;;
70122;SDS011;57489;37.404;24.920;2023-11-21T17:20:18;4.53;;;1.65;;
70122;SDS011;57489;37.404;24.920;2023-11-21T17:25:20;8.63;;;1.80;;
70122;SDS011;57489;37.404;24.920;2023-11-21T17:30:23;6.95;;;1.92;;
70122;SDS011;57489;37.404;24.920;2023-11-21T17:35:26;4.40;;;2.08;;
70122;SDS011;57489;37.404;24.920;2023-11-21T17:40:29;5.00;;;1.33;;
70122;SDS011;57489;37.404;24.920;2023-11-21T17:45:32;7.00;;;1.63;;
70122;SDS011;57489;37.404;24.920;2023-11-21T17:50:36;3.30;;;1.40;;
70122;SDS011;57489;37.404;24.920;2023-11-21T17:55:38;4.57;;;1.70;;
70122;SDS011;57489;37.404;24.920;2023-11-21T18:00:40;4.68;;;1.92;;
70122;SDS011;57489;37.404;24.920;2023-11-21T18:05:46;5.28;;;1.83;;
70122;SDS011;57489;37.404;24.920;2023-11-21T18:10:49;7.47;;;1.60;;
70122;SDS011;57489;37.404;24.920;2023-11-21T18:15:53;4.35;;;1.60;;
70122;SDS011;57489;37.404;24.920;2023-11-21T18:20:57;3.45;;;1.27;;
70122;SDS011;57489;37.404;24.920;2023-11-21T18:25:59;4.53;;;1.60;;
70122;SDS011;57489;37.404;24.920;2023-11-21T18:31:04;3.55;;;1.58;;
70122;SDS011;57489;37.404;24.920;2023-11-21T18:36:09;5.03;;;2.22;;
70122;SDS011;57489;37.404;24.920;2023-11-21T18:41:11;4.50;;;1.43;;
70122;SDS011;57489;37.404;24.920;2023-11-21T18:46:21;3.45;;;1.45;;
70122;SDS011;57489;37.404;24.920;2023-11-21T18:51:24;5.25;;;1.80;;
70122;SDS011;57489;37.404;24.920;2023-11-21T18:56:27;6.00;;;1.50;;
70122;SDS011;57489;37.404;24.920;2023-11-21T19:01:31;4.03;;;1.77;;
70122;SDS011;57489;37.404;24.920;2023-11-21T19:06:35;3.22;;;1.23;;
70122;SDS011;57489;37.404;24.920;2023-11-21T19:11:38;3.23;;;1.57;;
70122;SDS011;57489;37.404;24.920;2023-11-21T19:16:41;4.65;;;1.50;;
70122;SDS011;57489;37.404;24.920;2023-11-21T19:21:47;3.55;;;1.83;;
70122;SDS011;57489;37.404;24.920;2023-11-21T19:26:50;5.23;;;1.47;;
70122;SDS011;57489;37.404;24.920;2023-11-21T19:31:52;6.10;;;2.10;;
70122;SDS011;57489;37.404;24.920;2023-11-21T19:36:56;3.88;;;2.05;;
70122;SDS011;57489;37.404;24.920;2023-11-21T19:41:59;5.10;;;1.83;;
70122;SDS011;57489;37.404;24.920;2023-11-21T19:47:06;3.97;;;1.70;;
70122;SDS011;57489;37.404;24.920;2023-11-21T19:52:11;8.43;;;1.60;;
70122;SDS011;57489;37.404;24.920;2023-11-21T19:57:14;3.80;;;2.08;;
70122;SDS011;57489;37.404;24.920;2023-11-21T20:02:16;4.17;;;1.70;;
70122;SDS011;57489;37.404;24.920;2023-11-21T20:07:20;5.78;;;1.58;;
70122;SDS011;57489;37.404;24.920;2023-11-21T20:12:24;4.53;;;1.65;;
70122;SDS011;57489;37.404;24.920;2023-11-21T20:17:26;3.77;;;1.60;;
70122;SDS011;57489;37.404;24.920;2023-11-21T20:22:30;4.25;;;2.13;;
70122;SDS011;57489;37.404;24.920;2023-11-21T20:27:36;7.18;;;1.80;;
70122;SDS011;57489;37.404;24.920;2023-11-21T20:32:38;6.10;;;1.90;;
70122;SDS011;57489;37.404;24.920;2023-11-21T20:37:42;5.13;;;1.80;;
70122;SDS011;57489;37.404;24.920;2023-11-21T20:42:44;6.57;;;1.45;;
70122;SDS011;57489;37.404;24.920;2023-11-21T20:47:47;3.50;;;1.47;;
70122;SDS011;57489;37.404;24.920;2023-11-21T20:52:51;4.55;;;1.88;;
70122;SDS011;57489;37.404;24.920;2023-11-21T20:57:53;5.85;;;1.60;;
70122;SDS011;57489;37.404;24.920;2023-11-21T21:02:59;3.80;;;1.73;;
70122;SDS011;57489;37.404;24.920;2023-11-21T21:08:03;4.53;;;1.40;;
70122;SDS011;57489;37.404;24.920;2023-11-21T21:13:06;6.35;;;2.00;;
70122;SDS011;57489;37.404;24.920;2023-11-21T21:18:11;3.77;;;1.50;;
70122;SDS011;57489;37.404;24.920;2023-11-21T21:23:15;3.00;;;1.55;;
70122;SDS011;57489;37.404;24.920;2023-11-21T21:28:17;3.42;;;1.33;;
70122;SDS011;57489;37.404;24.920;2023-11-21T21:33:20;4.03;;;1.67;;
70122;SDS011;57489;37.404;24.920;2023-11-21T21:38:23;3.17;;;1.25;;
70122;SDS011;57489;37.404;24.920;2023-11-21T21:43:26;2.55;;;1.30;;
70122;SDS011;57489;37.404;24.920;2023-11-21T21:48:28;3.63;;;1.70;;
70122;SDS011;57489;37.404;24.920;2023-11-21T21:53:34;5.68;;;2.10;;
70122;SDS011;57489;37.404;24.920;2023-11-21T21:58:37;5.05;;;1.17;;
70122;SDS011;57489;37.404;24.920;2023-11-21T22:03:39;3.57;;;1.30;;
70122;SDS011;57489;37.404;24.920;2023-11-21T22:08:43;6.32;;;1.67;;
70122;SDS011;57489;37.404;24.920;2023-11-21T22:13:45;3.53;;;1.70;;
70122;SDS011;57489;37.404;24.920;2023-11-21T22:18:47;3.87;;;1.77;;
70122;SDS011;57489;37.404;24.920;2023-11-21T22:23:51;3.78;;;1.00;;
70122;SDS011;57489;37.404;24.920;2023-11-21T22:28:53;3.78;;;1.58;;
70122;SDS011;57489;37.404;24.920;2023-11-21T22:33:56;2.77;;;1.30;;
70122;SDS011;57489;37.404;24.920;2023-11-21T22:38:59;4.82;;;1.40;;
70122;SDS011;57489;37.404;24.920;2023-11-21T22:44:02;4.25;;;1.60;;
70122;SDS011;57489;37.404;24.920;2023-11-21T22:49:05;3.53;;;1.77;;
70122;SDS011;57489;37.404;24.920;2023-11-21T22:54:10;3.53;;;1.42;;
70122;SDS011;57489;37.404;24.920;2023-11-21T22:59:12;4.78;;;1.50;;
70122;SDS011;57489;37.404;24.920;2023-11-21T23:04:15;3.80;;;1.70;;
70122;SDS011;57489;37.404;24.920;2023-11-21T23:09:20;4.88;;;1.77;;
70122;SDS011;57489;37.404;24.920;2023-11-21T23:14:22;6.13;;;1.73;;
70122;SDS011;57489;37.404;24.920;2023-11-21T23:19:26;3.30;;;1.30;;
70122;SDS011;57489;37.404;24.920;2023-11-21T23:24:30;3.17;;;1.50;;
70122;SDS011;57489;37.404;24.920;2023-11-21T23:29:32;4.03;;;1.70;;
70122;SDS011;57489;37.404;24.920;2023-11-21T23:34:35;7.53;;;1.73;;
70122;SDS011;57489;37.404;24.920;2023-11-21T23:39:39;3.73;;;1.87;;
70122;SDS011;57489;37.404;24.920;2023-11-21T23:44:41;5.63;;;1.38;;
70122;SDS011;57489;37.404;24.920;2023-11-21T23:49:44;4.13;;;1.50;;
70122;SDS011;57489;37.404;24.920;2023-11-21T23:54:49;3.73;;;1.50;;
70122;SDS011;57489;37.404;24.920;2023-11-21T23:59:51;5.95;;;1.42;;
